Time;durP1;ratioP1;P1;durP2;ratioP2;P2;SDS_P1;SDS_P2;PMS_P1;PMS_P2;Temp;Humidity;BMP_temperature;BMP_pressure;BME280_temperature;BME280_humidity;BME280_pressure;Samples;Min_cycle;Max_cycle;Signal;HPM_P1;HPM_P2
2023/10/18 00:03:58;;;;;;;1.48;1.38;;;;;;;;;;10358496;28;20239;-79
2023/10/18 00:09:38;;;;;;;2.58;2.13;;;;;;;;;;10360412;28;20216;-79
2023/10/18 00:14:20;;;;;;;1.85;1.85;;;;;;;;;;10348901;28;20208;-80
2023/10/18 00:19:21;;;;;;;2.88;2.70;;;;;;;;;;10344467;28;20634;-79
2023/10/18 00:24:22;;;;;;;2.30;2.28;;;;;;;;;;10343193;28;20220;-79
2023/10/18 00:29:24;;;;;;;2.60;2.40;;;;;;;;;;10342535;28;20211;-80
2023/10/18 00:34:25;;;;;;;3.00;2.88;;;;;;;;;;10358657;28;20226;-80
2023/10/18 00:39:32;;;;;;;2.50;2.30;;;;;;;;;;10323298;28;20265;-80
2023/10/18 00:44:35;;;;;;;2.75;2.55;;;;;;;;;;10354349;28;20307;-80
2023/10/18 00:49:36;;;;;;;2.92;2.72;;;;;;;;;;10340492;28;20219;-77
2023/10/18 00:54:38;;;;;;;3.15;2.15;;;;;;;;;;10353198;28;20242;-77
2023/10/18 00:59:40;;;;;;;2.38;2.22;;;;;;;;;;10336542;28;20204;-79
2023/10/18 01:04:42;;;;;;;2.55;1.95;;;;;;;;;;10321973;28;20227;-82
2023/10/18 01:09:49;;;;;;;2.08;1.95;;;;;;;;;;10306705;28;20223;-78
2023/10/18 01:14:50;;;;;;;2.42;2.33;;;;;;;;;;10352455;28;20822;-79
2023/10/18 01:19:53;;;;;;;2.35;2.15;;;;;;;;;;10352452;28;20204;-81
2023/10/18 01:24:54;;;;;;;2.22;2.13;;;;;;;;;;10317035;28;20227;-78
2023/10/18 01:29:55;;;;;;;1.67;1.65;;;;;;;;;;10334564;28;20305;-79
2023/10/18 01:34:56;;;;;;;2.45;1.85;;;;;;;;;;10322603;28;20269;-79
2023/10/18 01:40:19;;;;;;;1.98;1.88;;;;;;;;;;10353018;28;20686;-79
2023/10/18 01:45:22;;;;;;;1.70;1.60;;;;;;;;;;10351746;28;20694;-79
2023/10/18 01:50:24;;;;;;;1.67;1.63;;;;;;;;;;10355024;28;20253;-80
2023/10/18 01:55:28;;;;;;;1.80;1.70;;;;;;;;;;10350956;28;20220;-79
2023/10/18 02:00:37;;;;;;;1.92;1.83;;;;;;;;;;10353705;28;20207;-78
2023/10/18 02:05:40;;;;;;;1.23;1.23;;;;;;;;;;10337817;28;20235;-80
2023/10/18 02:10:42;;;;;;;1.63;1.52;;;;;;;;;;10330150;28;20234;-79
2023/10/18 02:15:43;;;;;;;1.85;1.75;;;;;;;;;;10361093;28;20591;-78
2023/10/18 02:20:51;;;;;;;1.50;1.50;;;;;;;;;;10362247;28;20223;-79
2023/10/18 02:25:52;;;;;;;1.65;1.55;;;;;;;;;;10335321;28;20686;-81
2023/10/18 02:31:07;;;;;;;1.30;1.30;;;;;;;;;;10332329;28;20235;-80
2023/10/18 02:36:12;;;;;;;1.30;1.30;;;;;;;;;;10349106;28;20216;-78
2023/10/18 02:41:20;;;;;;;3.15;2.08;;;;;;;;;;10356216;28;20212;-80
2023/10/18 02:46:25;;;;;;;1.70;1.60;;;;;;;;;;10375564;28;20212;-81
2023/10/18 02:51:28;;;;;;;1.73;1.63;;;;;;;;;;10358432;28;20726;-80
2023/10/18 02:56:33;;;;;;;1.90;1.80;;;;;;;;;;10318856;28;20752;-79
2023/10/18 03:01:36;;;;;;;2.38;2.17;;;;;;;;;;10350819;28;20315;-79
2023/10/18 03:06:38;;;;;;;1.88;1.80;;;;;;;;;;10353735;28;20977;-78
2023/10/18 03:11:39;;;;;;;1.60;1.60;;;;;;;;;;10355267;28;20226;-79
2023/10/18 03:16:41;;;;;;;2.03;1.92;;;;;;;;;;10341088;28;20208;-79
2023/10/18 03:21:47;;;;;;;1.70;1.60;;;;;;;;;;10342097;28;20219;-78
2023/10/18 03:26:48;;;;;;;2.15;2.05;;;;;;;;;;10325256;28;20695;-80
2023/10/18 03:31:50;;;;;;;2.13;2.05;;;;;;;;;;10354819;28;20227;-78
2023/10/18 03:36:52;;;;;;;2.15;2.05;;;;;;;;;;10356654;28;20212;-78
2023/10/18 03:41:53;;;;;;;1.67;1.58;;;;;;;;;;10358583;28;20634;-80
2023/10/18 03:47:04;;;;;;;1.77;1.67;;;;;;;;;;10340019;28;20223;-80
2023/10/18 03:57:16;;;;;;;1.67;1.58;;;;;;;;;;10343366;28;20262;-79
2023/10/18 04:07:26;;;;;;;1.83;1.73;;;;;;;;;;10345926;28;20223;-79
2023/10/18 04:12:27;;;;;;;3.17;1.50;;;;;;;;;;10329798;28;20281;-80
2023/10/18 04:17:39;;;;;;;1.63;1.55;;;;;;;;;;10317712;28;20698;-78
2023/10/18 04:22:40;;;;;;;1.65;1.55;;;;;;;;;;10325233;28;20219;-79
2023/10/18 04:27:44;;;;;;;3.58;1.92;;;;;;;;;;10323357;28;20814;-77
2023/10/18 04:32:53;;;;;;;2.13;2.00;;;;;;;;;;10352578;28;20254;-78
2023/10/18 04:37:54;;;;;;;4.30;2.60;;;;;;;;;;10336889;28;20222;-79
2023/10/18 04:42:55;;;;;;;2.47;1.95;;;;;;;;;;10357841;28;20216;-79
2023/10/18 04:48:06;;;;;;;3.58;2.40;;;;;;;;;;10350574;28;20208;-81
2023/10/18 04:53:14;;;;;;;3.50;2.20;;;;;;;;;;10358416;28;20219;-80
2023/10/18 04:58:15;;;;;;;2.42;1.98;;;;;;;;;;10355681;28;20207;-81
2023/10/18 05:03:17;;;;;;;3.28;2.00;;;;;;;;;;10334103;28;20338;-81
2023/10/18 05:08:18;;;;;;;5.82;4.15;;;;;;;;;;10346831;28;20239;-82
2023/10/18 05:13:23;;;;;;;4.38;2.78;;;;;;;;;;10338270;28;20303;-81
2023/10/18 05:18:24;;;;;;;2.20;2.00;;;;;;;;;;10357739;28;20201;-82
2023/10/18 05:23:25;;;;;;;2.33;2.13;;;;;;;;;;10348582;28;20426;-78
2023/10/18 05:28:28;;;;;;;2.95;1.85;;;;;;;;;;10362594;28;20308;-82
2023/10/18 05:43:46;;;;;;;2.60;2.50;;;;;;;;;;10346826;28;20216;-81
2023/10/18 05:48:47;;;;;;;5.65;4.60;;;;;;;;;;10343456;28;20208;-81
2023/10/18 05:53:48;;;;;;;4.97;4.25;;;;;;;;;;10362955;28;20220;-80
2023/10/18 05:59:15;;;;;;;5.60;3.78;;;;;;;;;;10347527;28;20273;-80
2023/10/18 06:04:12;;;;;;;3.53;3.20;;;;;;;;;;10359373;28;20234;-81
2023/10/18 06:09:32;;;;;;;3.17;2.78;;;;;;;;;;10341698;28;20220;-79
2023/10/18 06:14:40;;;;;;;5.85;2.30;;;;;;;;;;10340231;28;20303;-79
2023/10/18 06:19:45;;;;;;;3.45;3.25;;;;;;;;;;10342635;28;20234;-78
2023/10/18 06:24:48;;;;;;;2.65;2.45;;;;;;;;;;10353700;28;20219;-78
2023/10/18 06:29:55;;;;;;;4.03;2.88;;;;;;;;;;10326261;28;20227;-78
2023/10/18 06:34:57;;;;;;;3.40;2.70;;;;;;;;;;10355354;28;20218;-78
2023/10/18 06:39:58;;;;;;;3.60;3.38;;;;;;;;;;10323596;28;20215;-77
2023/10/18 06:45:03;;;;;;;5.43;3.60;;;;;;;;;;10356733;28;20312;-78
2023/10/18 06:50:04;;;;;;;6.50;2.97;;;;;;;;;;10357845;28;20235;-76
2023/10/18 06:55:05;;;;;;;9.90;4.15;;;;;;;;;;10325574;28;20222;-80
2023/10/18 07:00:10;;;;;;;3.38;3.13;;;;;;;;;;10339114;28;20184;-78
2023/10/18 07:05:12;;;;;;;4.20;3.65;;;;;;;;;;10352773;28;20689;-76
2023/10/18 07:10:30;;;;;;;4.28;3.58;;;;;;;;;;10357291;28;21524;-76
2023/10/18 07:15:34;;;;;;;7.43;3.70;;;;;;;;;;10323485;28;20604;-77
2023/10/18 07:20:36;;;;;;;11.15;4.78;;;;;;;;;;10341020;28;20266;-77
2023/10/18 07:25:38;;;;;;;6.78;4.60;;;;;;;;;;10356797;28;20227;-78
2023/10/18 07:30:44;;;;;;;8.38;5.70;;;;;;;;;;10358768;28;20282;-79
2023/10/18 07:35:45;;;;;;;9.02;5.88;;;;;;;;;;10355169;28;20618;-79
2023/10/18 07:40:55;;;;;;;8.65;5.90;;;;;;;;;;10342533;28;20204;-78
2023/10/18 07:45:57;;;;;;;9.40;6.25;;;;;;;;;;10340133;28;20231;-78
2023/10/18 07:51:03;;;;;;;11.55;6.38;;;;;;;;;;10355906;28;20212;-77
2023/10/18 07:56:06;;;;;;;10.10;6.78;;;;;;;;;;10345209;28;20322;-78
2023/10/18 08:01:09;;;;;;;12.20;7.18;;;;;;;;;;10362644;28;20232;-80
2023/10/18 08:06:26;;;;;;;10.52;6.43;;;;;;;;;;10364023;28;20212;-79
2023/10/18 08:11:27;;;;;;;8.02;6.30;;;;;;;;;;10360576;28;20216;-78
2023/10/18 08:16:42;;;;;;;13.20;6.80;;;;;;;;;;10347705;28;20967;-78
2023/10/18 08:21:57;;;;;;;10.80;6.28;;;;;;;;;;10346620;28;20220;-77
2023/10/18 08:27:00;;;;;;;7.15;6.03;;;;;;;;;;10332268;28;20205;-78
2023/10/18 08:32:06;;;;;;;7.75;5.82;;;;;;;;;;10360359;28;20347;-77
2023/10/18 08:37:11;;;;;;;6.15;4.97;;;;;;;;;;10363772;28;20749;-79
2023/10/18 08:42:14;;;;;;;7.65;4.90;;;;;;;;;;10363997;28;20244;-79
2023/10/18 08:47:17;;;;;;;7.03;4.72;;;;;;;;;;10346006;28;20259;-81
2023/10/18 08:52:23;;;;;;;6.13;5.18;;;;;;;;;;10362768;28;20860;-79
2023/10/18 08:57:34;;;;;;;7.55;5.47;;;;;;;;;;10362794;28;20204;-78
2023/10/18 09:02:39;;;;;;;6.32;4.53;;;;;;;;;;10333786;28;20224;-77
2023/10/18 09:07:43;;;;;;;5.38;4.32;;;;;;;;;;10367546;28;20235;-78
2023/10/18 09:17:46;;;;;;;4.97;4.50;;;;;;;;;;10344265;28;20231;-77
2023/10/18 09:22:48;;;;;;;6.28;4.43;;;;;;;;;;10347731;28;20247;-79
2023/10/18 09:27:49;;;;;;;7.45;5.38;;;;;;;;;;10368083;28;20222;-79
2023/10/18 09:32:50;;;;;;;6.55;4.88;;;;;;;;;;10369374;28;20712;-79
2023/10/18 09:37:52;;;;;;;5.57;4.93;;;;;;;;;;10343954;28;20204;-79
2023/10/18 09:42:54;;;;;;;6.22;5.00;;;;;;;;;;10362432;28;20291;-79
2023/10/18 09:47:58;;;;;;;6.05;4.82;;;;;;;;;;10366131;28;20215;-76
2023/10/18 09:53:00;;;;;;;5.28;4.70;;;;;;;;;;10349351;28;20222;-79
2023/10/18 09:58:04;;;;;;;4.93;4.35;;;;;;;;;;10365072;28;20231;-80
2023/10/18 10:03:08;;;;;;;5.30;4.72;;;;;;;;;;10333997;28;20821;-79
2023/10/18 10:08:13;;;;;;;4.93;4.47;;;;;;;;;;10367225;28;20208;-79
2023/10/18 10:13:18;;;;;;;5.28;4.20;;;;;;;;;;10360984;28;20235;-79
2023/10/18 10:18:21;;;;;;;5.57;4.97;;;;;;;;;;10365210;28;20270;-81
2023/10/18 10:23:22;;;;;;;5.82;4.75;;;;;;;;;;10350727;28;20594;-80
2023/10/18 10:34:08;;;;;;;4.57;4.18;;;;;;;;;;10366631;28;20577;-79
2023/10/18 10:39:12;;;;;;;5.07;4.47;;;;;;;;;;10347220;28;20204;-81
2023/10/18 10:44:38;;;;;;;5.35;4.18;;;;;;;;;;10365275;28;20212;-80
2023/10/18 10:49:58;;;;;;;3.97;3.67;;;;;;;;;;10366473;28;20216;-81
2023/10/18 10:55:01;;;;;;;3.72;3.53;;;;;;;;;;10364405;28;20212;-80
2023/10/18 11:00:22;;;;;;;3.97;3.78;;;;;;;;;;10366455;28;20744;-80
2023/10/18 11:05:26;;;;;;;4.13;3.67;;;;;;;;;;10344892;28;20235;-80
2023/10/18 11:10:28;;;;;;;4.05;3.75;;;;;;;;;;10358522;28;20674;-80
2023/10/18 11:15:30;;;;;;;4.10;3.90;;;;;;;;;;10347352;28;20232;-79
2023/10/18 11:20:48;;;;;;;4.43;3.78;;;;;;;;;;10361708;28;20204;-79
2023/10/18 11:25:56;;;;;;;4.88;3.92;;;;;;;;;;10360525;28;20960;-79
2023/10/18 11:30:58;;;;;;;3.90;3.70;;;;;;;;;;10337206;28;20222;-81
2023/10/18 11:36:02;;;;;;;4.15;3.80;;;;;;;;;;10352814;28;20230;-79
2023/10/18 11:41:09;;;;;;;3.03;2.80;;;;;;;;;;10366044;28;20279;-79
2023/10/18 11:46:11;;;;;;;7.78;3.53;;;;;;;;;;10367036;28;20220;-79
2023/10/18 11:51:13;;;;;;;3.05;2.85;;;;;;;;;;10370591;28;20216;-81
2023/10/18 11:56:17;;;;;;;2.83;2.72;;;;;;;;;;10354290;28;20226;-80
2023/10/18 12:01:19;;;;;;;2.42;2.33;;;;;;;;;;10351524;28;20260;-79
2023/10/18 12:06:22;;;;;;;2.75;2.65;;;;;;;;;;10354420;28;20220;-79
2023/10/18 12:11:23;;;;;;;2.75;2.55;;;;;;;;;;10345740;28;20696;-79
2023/10/18 12:16:24;;;;;;;2.63;2.47;;;;;;;;;;10352325;28;20291;-79
2023/10/18 12:21:31;;;;;;;3.20;2.95;;;;;;;;;;10373460;28;21273;-79
2023/10/18 12:26:34;;;;;;;2.50;2.40;;;;;;;;;;10370332;28;20882;-81
2023/10/18 12:31:42;;;;;;;2.33;2.05;;;;;;;;;;10368977;28;20220;-80
2023/10/18 12:36:49;;;;;;;2.70;2.60;;;;;;;;;;10366857;28;20216;-80
2023/10/18 12:41:53;;;;;;;2.50;2.30;;;;;;;;;;10335206;28;20211;-80
2023/10/18 12:46:54;;;;;;;1.98;1.88;;;;;;;;;;10347956;28;20211;-81
2023/10/18 12:51:59;;;;;;;1.95;1.85;;;;;;;;;;10364987;28;21967;-80
2023/10/18 12:57:14;;;;;;;1.65;1.65;;;;;;;;;;10367744;28;20209;-79
2023/10/18 13:02:41;;;;;;;2.05;1.95;;;;;;;;;;10364375;28;20227;-80
2023/10/18 13:07:37;;;;;;;6.40;2.00;;;;;;;;;;10346572;28;20565;-80
2023/10/18 13:12:53;;;;;;;2.65;1.58;;;;;;;;;;10346249;28;20243;-80
2023/10/18 13:17:54;;;;;;;1.55;1.50;;;;;;;;;;10358959;28;20302;-80
2023/10/18 13:22:55;;;;;;;1.80;1.70;;;;;;;;;;10345150;28;20227;-81
2023/10/18 13:28:05;;;;;;;1.50;1.40;;;;;;;;;;10361535;28;20235;-79
2023/10/18 13:33:12;;;;;;;1.65;0.90;;;;;;;;;;10329521;28;20993;-79
2023/10/18 13:38:15;;;;;;;1.42;1.42;;;;;;;;;;10344970;28;20292;-80
2023/10/18 13:43:18;;;;;;;1.40;1.35;;;;;;;;;;10342654;28;20806;-80
2023/10/18 13:48:19;;;;;;;1.95;1.35;;;;;;;;;;10343457;28;20633;-79
2023/10/18 13:53:23;;;;;;;1.40;1.30;;;;;;;;;;10332197;28;20319;-80
2023/10/18 13:58:24;;;;;;;1.20;1.20;;;;;;;;;;10341979;28;20452;-80
2023/10/18 14:03:27;;;;;;;1.85;1.52;;;;;;;;;;10360643;28;20259;-81
2023/10/18 14:08:28;;;;;;;1.92;1.50;;;;;;;;;;10341851;28;20227;-79
2023/10/18 14:13:29;;;;;;;3.33;2.38;;;;;;;;;;10344790;28;20282;-81
2023/10/18 14:18:31;;;;;;;4.85;1.92;;;;;;;;;;10362780;28;20324;-81
2023/10/18 14:23:34;;;;;;;2.38;2.28;;;;;;;;;;10345903;28;20227;-80
2023/10/18 14:28:40;;;;;;;3.20;2.90;;;;;;;;;;10330102;28;20243;-79
2023/10/18 14:33:42;;;;;;;2.30;2.20;;;;;;;;;;10342330;28;20212;-81
2023/10/18 14:38:44;;;;;;;2.85;2.60;;;;;;;;;;10335782;28;20337;-81
2023/10/18 14:43:47;;;;;;;2.78;2.40;;;;;;;;;;10361267;28;20581;-78
2023/10/18 14:48:48;;;;;;;2.30;2.10;;;;;;;;;;10340700;28;20220;-78
2023/10/18 14:53:49;;;;;;;8.75;3.40;;;;;;;;;;10352450;28;20246;-78
2023/10/18 14:58:54;;;;;;;2.40;2.30;;;;;;;;;;10354353;28;20538;-80
2023/10/18 15:03:55;;;;;;;4.72;2.78;;;;;;;;;;10325289;28;20243;-80
2023/10/18 15:08:57;;;;;;;1.75;1.65;;;;;;;;;;10364389;28;20235;-82
2023/10/18 15:13:58;;;;;;;1.92;1.83;;;;;;;;;;10346721;28;20220;-79
2023/10/18 15:18:59;;;;;;;1.95;1.80;;;;;;;;;;10345590;28;20207;-76
2023/10/18 15:24:00;;;;;;;4.50;2.28;;;;;;;;;;10335049;28;20215;-79
2023/10/18 15:29:02;;;;;;;2.70;1.70;;;;;;;;;;10358551;28;20216;-79
2023/10/18 15:34:03;;;;;;;2.60;2.40;;;;;;;;;;10358977;28;20223;-78
2023/10/18 15:39:08;;;;;;;10.75;2.92;;;;;;;;;;10353398;28;20210;-77
2023/10/18 15:44:10;;;;;;;1.98;1.92;;;;;;;;;;10341203;28;20814;-77
2023/10/18 15:49:11;;;;;;;3.60;2.10;;;;;;;;;;10362071;28;20216;-79
2023/10/18 15:54:12;;;;;;;2.53;2.38;;;;;;;;;;10345601;28;20299;-78
2023/10/18 15:59:17;;;;;;;2.70;2.50;;;;;;;;;;10344508;28;20208;-79
2023/10/18 16:04:19;;;;;;;1.67;1.58;;;;;;;;;;10359021;28;20740;-79
2023/10/18 16:09:22;;;;;;;3.05;2.28;;;;;;;;;;10352692;28;20216;-78
2023/10/18 16:14:24;;;;;;;2.80;2.60;;;;;;;;;;10340146;28;20675;-78
2023/10/18 16:19:26;;;;;;;2.50;2.40;;;;;;;;;;10360610;28;20708;-81
2023/10/18 16:24:28;;;;;;;2.25;2.05;;;;;;;;;;10359383;28;20224;-78
2023/10/18 16:29:29;;;;;;;2.80;2.70;;;;;;;;;;10357662;28;20274;-79
2023/10/18 16:34:30;;;;;;;5.35;3.17;;;;;;;;;;10355722;28;20319;-78
2023/10/18 16:39:31;;;;;;;5.97;3.30;;;;;;;;;;10338302;28;20419;-78
2023/10/18 16:44:32;;;;;;;2.58;2.42;;;;;;;;;;10327505;28;20219;-80
2023/10/18 16:49:33;;;;;;;3.58;3.28;;;;;;;;;;10337568;28;20702;-77
2023/10/18 16:54:35;;;;;;;3.28;3.08;;;;;;;;;;10332574;28;20215;-78
2023/10/18 16:59:38;;;;;;;3.70;3.40;;;;;;;;;;10334723;28;20204;-77
2023/10/18 17:04:39;;;;;;;5.63;3.92;;;;;;;;;;10338997;28;20228;-76
2023/10/18 17:09:40;;;;;;;3.67;3.33;;;;;;;;;;10328964;28;20212;-78
2023/10/18 17:14:41;;;;;;;5.68;4.28;;;;;;;;;;10360193;28;20752;-77
2023/10/18 17:19:42;;;;;;;3.25;3.05;;;;;;;;;;10338931;28;20203;-77
2023/10/18 17:24:43;;;;;;;4.30;3.88;;;;;;;;;;10333796;28;20242;-78
2023/10/18 17:29:44;;;;;;;5.13;4.25;;;;;;;;;;10351099;28;20215;-77
2023/10/18 17:34:45;;;;;;;4.53;3.45;;;;;;;;;;10354671;28;20220;-77
2023/10/18 17:39:46;;;;;;;5.60;3.60;;;;;;;;;;10354451;28;20207;-78
2023/10/18 17:44:48;;;;;;;3.40;3.20;;;;;;;;;;10335482;28;20238;-77
2023/10/18 17:49:49;;;;;;;6.43;3.45;;;;;;;;;;10354234;28;20200;-78
2023/10/18 17:54:50;;;;;;;3.22;3.13;;;;;;;;;;10353080;28;20254;-78
2023/10/18 17:59:53;;;;;;;3.30;3.17;;;;;;;;;;10340055;28;20342;-78
2023/10/18 18:04:54;;;;;;;6.18;3.60;;;;;;;;;;10333560;28;20224;-79
2023/10/18 18:09:55;;;;;;;3.97;3.58;;;;;;;;;;10337653;28;20709;-78
2023/10/18 18:14:56;;;;;;;4.07;3.60;;;;;;;;;;10362066;28;20223;-78
2023/10/18 18:20:05;;;;;;;3.70;3.40;;;;;;;;;;10339125;28;20207;-78
2023/10/18 18:25:06;;;;;;;4.97;3.78;;;;;;;;;;10318824;28;20302;-79
2023/10/18 18:30:10;;;;;;;3.70;3.40;;;;;;;;;;10352417;28;20191;-79
2023/10/18 18:35:14;;;;;;;3.38;3.15;;;;;;;;;;10350206;28;20220;-78
2023/10/18 18:40:15;;;;;;;5.13;3.88;;;;;;;;;;10333259;28;20180;-77
2023/10/18 18:45:19;;;;;;;6.72;4.50;;;;;;;;;;10319431;28;20235;-78
2023/10/18 18:50:20;;;;;;;6.30;4.57;;;;;;;;;;10334154;28;20188;-79
2023/10/18 18:55:21;;;;;;;4.10;3.70;;;;;;;;;;10334516;28;20694;-78
2023/10/18 19:00:22;;;;;;;4.05;3.20;;;;;;;;;;10350307;28;20188;-79
2023/10/18 19:05:23;;;;;;;4.43;3.60;;;;;;;;;;10336451;28;20699;-78
2023/10/18 19:10:25;;;;;;;3.60;3.30;;;;;;;;;;10326575;28;20204;-78
2023/10/18 19:15:26;;;;;;;3.33;3.13;;;;;;;;;;10318937;28;20216;-76
2023/10/18 19:20:27;;;;;;;4.82;2.80;;;;;;;;;;10331609;28;20303;-78
2023/10/18 19:25:30;;;;;;;3.08;2.85;;;;;;;;;;10341130;28;20918;-79
2023/10/18 19:30:31;;;;;;;3.10;3.00;;;;;;;;;;10337838;28;20266;-80
2023/10/18 19:35:35;;;;;;;3.35;3.05;;;;;;;;;;10353927;28;20220;-79
2023/10/18 19:40:37;;;;;;;4.68;3.90;;;;;;;;;;10330808;28;20209;-80
2023/10/18 19:45:39;;;;;;;2.75;2.55;;;;;;;;;;10351815;28;20216;-79
2023/10/18 19:50:41;;;;;;;2.30;2.28;;;;;;;;;;10365501;28;20223;-78
2023/10/18 19:55:42;;;;;;;3.50;2.67;;;;;;;;;;10363345;28;20223;-78
2023/10/18 20:00:43;;;;;;;4.30;2.95;;;;;;;;;;10345727;28;20227;-78
2023/10/18 20:05:45;;;;;;;3.85;3.17;;;;;;;;;;10330790;28;20215;-79
2023/10/18 20:10:46;;;;;;;3.17;2.50;;;;;;;;;;10360531;28;20716;-78
2023/10/18 20:15:47;;;;;;;3.25;2.95;;;;;;;;;;10330204;28;20215;-77
2023/10/18 20:20:56;;;;;;;4.15;3.30;;;;;;;;;;10346534;28;20222;-78
2023/10/18 20:25:59;;;;;;;2.88;2.78;;;;;;;;;;10345337;28;20214;-79
2023/10/18 20:31:00;;;;;;;3.63;3.00;;;;;;;;;;10342146;28;20299;-79
2023/10/18 20:36:01;;;;;;;3.45;3.03;;;;;;;;;;10359392;28;20223;-79
2023/10/18 20:41:04;;;;;;;3.30;3.05;;;;;;;;;;10342033;28;20230;-79
2023/10/18 20:46:13;;;;;;;5.32;3.95;;;;;;;;;;10358200;28;20294;-78
2023/10/18 20:51:14;;;;;;;3.40;3.20;;;;;;;;;;10355126;28;20732;-78
2023/10/18 20:56:18;;;;;;;3.10;2.85;;;;;;;;;;10341782;28;20212;-79
2023/10/18 21:01:27;;;;;;;3.92;3.53;;;;;;;;;;10355943;28;20745;-79
2023/10/18 21:06:30;;;;;;;7.70;3.30;;;;;;;;;;10357278;28;20223;-79
2023/10/18 21:11:34;;;;;;;3.10;2.90;;;;;;;;;;10356238;28;20761;-79
2023/10/18 21:16:35;;;;;;;6.22;3.00;;;;;;;;;;10349303;28;20208;-79
2023/10/18 21:21:37;;;;;;;6.95;3.42;;;;;;;;;;10359918;28;20307;-77
2023/10/18 21:26:40;;;;;;;3.67;3.38;;;;;;;;;;10356352;28;20232;-79
2023/10/18 21:31:42;;;;;;;3.33;2.90;;;;;;;;;;10357400;28;20706;-77
2023/10/18 21:36:43;;;;;;;4.55;4.03;;;;;;;;;;10323291;28;20236;-79
2023/10/18 21:41:44;;;;;;;4.97;2.90;;;;;;;;;;10356276;28;20327;-79
2023/10/18 21:46:45;;;;;;;3.42;3.13;;;;;;;;;;10327892;28;20595;-79
2023/10/18 21:51:46;;;;;;;4.70;3.58;;;;;;;;;;10353688;28;20216;-79
2023/10/18 21:56:47;;;;;;;5.93;4.07;;;;;;;;;;10341226;28;20212;-79
2023/10/18 22:01:51;;;;;;;4.07;3.78;;;;;;;;;;10351425;28;20232;-79
2023/10/18 22:06:54;;;;;;;3.83;3.30;;;;;;;;;;10353223;28;20207;-78
2023/10/18 22:11:55;;;;;;;6.43;4.07;;;;;;;;;;10331690;28;20223;-78
2023/10/18 22:16:57;;;;;;;4.53;3.85;;;;;;;;;;10367753;28;20219;-79
2023/10/18 22:21:58;;;;;;;4.53;4.10;;;;;;;;;;10362504;28;20627;-78
2023/10/18 22:26:59;;;;;;;4.78;4.32;;;;;;;;;;10365475;28;20215;-79
2023/10/18 22:32:01;;;;;;;5.22;4.72;;;;;;;;;;10363734;28;20216;-79
2023/10/18 22:37:06;;;;;;;4.55;4.15;;;;;;;;;;10361629;28;20228;-79
2023/10/18 22:42:14;;;;;;;5.25;4.35;;;;;;;;;;10341837;28;20756;-77
2023/10/18 22:47:28;;;;;;;5.30;4.55;;;;;;;;;;10327536;28;20216;-79
2023/10/18 22:52:39;;;;;;;6.50;4.82;;;;;;;;;;10340519;28;20218;-79
2023/10/18 22:57:42;;;;;;;6.43;5.15;;;;;;;;;;10339647;28;20285;-78
2023/10/18 23:02:43;;;;;;;5.22;4.38;;;;;;;;;;10319627;28;20267;-79
2023/10/18 23:07:55;;;;;;;6.22;5.30;;;;;;;;;;10354949;28;20219;-80
2023/10/18 23:12:57;;;;;;;6.68;5.50;;;;;;;;;;10350438;28;20278;-79
2023/10/18 23:18:04;;;;;;;5.82;4.35;;;;;;;;;;10359144;28;20281;-78
2023/10/18 23:23:06;;;;;;;8.65;5.13;;;;;;;;;;10342873;28;20216;-80
2023/10/18 23:28:19;;;;;;;5.93;5.07;;;;;;;;;;10331041;28;20208;-79
2023/10/18 23:33:42;;;;;;;5.88;5.30;;;;;;;;;;10382499;28;20220;-79
2023/10/18 23:38:43;;;;;;;5.25;4.75;;;;;;;;;;10382963;28;20200;-80
2023/10/18 23:43:49;;;;;;;7.82;5.20;;;;;;;;;;10382642;28;20216;-79
2023/10/18 23:53:59;;;;;;;10.45;6.00;;;;;;;;;;10366373;28;20726;-78
2023/10/18 23:59:00;;;;;;;9.77;5.32;;;;;;;;;;10348041;28;20227;-79
